Time;durP1;ratioP1;P1;durP2;ratioP2;P2;SDS_P1;SDS_P2;PMS_P1;PMS_P2;Temp;Humidity;BMP_temperature;BMP_pressure;BME280_temperature;BME280_humidity;BME280_pressure;Samples;Min_cycle;Max_cycle;Signal;HPM_P1;HPM_P2
2021/08/08 00:01:16;;;;;;;17.23;16.40;;;;;;;;;;5095770;28;20443;-93
2021/08/08 00:03:43;;;;;;;17.50;16.70;;;;;;;;;;5095740;28;20449;-92
2021/08/08 00:06:12;;;;;;;18.10;17.20;;;;;;;;;;5095859;28;20429;-92
2021/08/08 00:08:40;;;;;;;17.40;16.53;;;;;;;;;;5095355;28;20901;-91
2021/08/08 00:11:08;;;;;;;17.30;16.40;;;;;;;;;;5095708;28;20452;-92
2021/08/08 00:13:36;;;;;;;17.40;16.60;;;;;;;;;;5095922;28;20955;-91
2021/08/08 00:16:04;;;;;;;16.60;15.80;;;;;;;;;;5094395;28;20458;-91
2021/08/08 00:18:31;;;;;;;16.77;16.07;;;;;;;;;;5095741;28;20782;-92
2021/08/08 00:20:58;;;;;;;17.30;16.37;;;;;;;;;;5095582;28;20496;-91
2021/08/08 00:23:27;;;;;;;17.20;16.30;;;;;;;;;;5095345;28;20446;-91
2021/08/08 00:25:54;;;;;;;16.93;16.13;;;;;;;;;;5095293;28;20431;-91
2021/08/08 00:28:22;;;;;;;16.97;16.27;;;;;;;;;;5095522;28;20418;-92
2021/08/08 00:30:49;;;;;;;17.03;16.23;;;;;;;;;;5095118;28;20433;-92
2021/08/08 00:33:17;;;;;;;17.40;16.60;;;;;;;;;;5095377;28;20406;-91
2021/08/08 00:35:44;;;;;;;16.80;16.00;;;;;;;;;;5094380;28;20431;-91
2021/08/08 00:38:12;;;;;;;17.87;16.87;;;;;;;;;;5095404;28;20422;-91
2021/08/08 00:40:40;;;;;;;17.13;16.23;;;;;;;;;;5095476;28;20461;-92
2021/08/08 00:43:10;;;;;;;17.20;16.50;;;;;;;;;;5094991;28;20444;-92
2021/08/08 00:45:37;;;;;;;17.00;16.20;;;;;;;;;;5094834;28;20461;-91
2021/08/08 00:48:05;;;;;;;16.60;15.70;;;;;;;;;;5095582;28;20460;-91
2021/08/08 00:50:33;;;;;;;16.97;16.17;;;;;;;;;;5094127;28;20485;-91
2021/08/08 00:53:00;;;;;;;16.80;16.00;;;;;;;;;;5095393;28;20500;-92
2021/08/08 00:55:27;;;;;;;16.50;15.80;;;;;;;;;;5095086;28;20413;-92
2021/08/08 00:57:56;;;;;;;16.77;16.07;;;;;;;;;;5095475;28;20446;-91
2021/08/08 01:00:24;;;;;;;16.33;15.60;;;;;;;;;;5094578;28;20466;-91
2021/08/08 01:02:53;;;;;;;17.10;16.20;;;;;;;;;;5095018;28;20433;-91
2021/08/08 01:05:23;;;;;;;16.77;15.67;;;;;;;;;;5094642;28;20437;-91
2021/08/08 01:07:56;;;;;;;16.77;16.07;;;;;;;;;;5095497;28;20452;-91
2021/08/08 01:10:24;;;;;;;16.30;15.60;;;;;;;;;;5095061;28;20423;-91
2021/08/08 01:12:55;;;;;;;16.90;16.10;;;;;;;;;;5094811;28;20427;-91
2021/08/08 01:15:24;;;;;;;17.10;16.30;;;;;;;;;;5093812;28;20839;-91
2021/08/08 01:17:52;;;;;;;17.13;16.33;;;;;;;;;;5094672;28;20418;-92
2021/08/08 01:20:20;;;;;;;17.50;16.63;;;;;;;;;;5093337;28;20496;-91
2021/08/08 01:22:50;;;;;;;17.10;16.40;;;;;;;;;;5093426;28;20430;-91
2021/08/08 01:25:19;;;;;;;16.97;16.17;;;;;;;;;;5094362;28;20879;-93
2021/08/08 01:27:46;;;;;;;17.03;16.13;;;;;;;;;;5094619;28;20415;-94
2021/08/08 01:30:14;;;;;;;16.93;16.10;;;;;;;;;;5093363;28;20482;-94
2021/08/08 01:32:43;;;;;;;17.70;16.77;;;;;;;;;;5094087;28;20899;-94
2021/08/08 01:35:11;;;;;;;17.00;16.13;;;;;;;;;;5093419;28;20473;-94
2021/08/08 01:37:38;;;;;;;17.90;16.70;;;;;;;;;;5093533;28;20444;-94
2021/08/08 01:40:10;;;;;;;16.80;16.00;;;;;;;;;;5094504;28;20793;-94
2021/08/08 01:42:40;;;;;;;17.27;16.37;;;;;;;;;;5094633;28;20404;-93
2021/08/08 01:45:09;;;;;;;17.07;16.27;;;;;;;;;;5094596;28;20412;-94
2021/08/08 01:47:38;;;;;;;16.60;15.90;;;;;;;;;;5093276;28;20933;-94
2021/08/08 01:50:06;;;;;;;17.43;16.67;;;;;;;;;;5094721;28;20498;-94
2021/08/08 01:52:35;;;;;;;17.37;16.40;;;;;;;;;;5094612;28;20439;-95
2021/08/08 01:55:03;;;;;;;17.53;16.73;;;;;;;;;;5094967;28;20508;-93
2021/08/08 01:57:30;;;;;;;17.13;16.33;;;;;;;;;;5094968;28;20416;-94
2021/08/08 01:59:59;;;;;;;16.90;16.17;;;;;;;;;;5094099;28;20466;-94
2021/08/08 02:02:26;;;;;;;16.70;16.00;;;;;;;;;;5094380;28;20406;-94
2021/08/08 02:04:54;;;;;;;17.47;16.43;;;;;;;;;;5094656;28;20446;-93
2021/08/08 02:07:22;;;;;;;16.83;15.73;;;;;;;;;;5094739;28;20453;-94
2021/08/08 02:09:50;;;;;;;18.27;17.17;;;;;;;;;;5094577;28;20418;-94
2021/08/08 02:12:17;;;;;;;16.90;16.20;;;;;;;;;;5094877;28;20819;-94
2021/08/08 02:14:45;;;;;;;17.40;16.60;;;;;;;;;;5094042;28;20442;-94
2021/08/08 02:17:14;;;;;;;17.17;16.37;;;;;;;;;;5094061;28;20949;-94
2021/08/08 02:19:41;;;;;;;17.47;16.37;;;;;;;;;;5094151;28;20426;-94
2021/08/08 02:22:08;;;;;;;17.33;16.40;;;;;;;;;;5094487;28;20482;-94
2021/08/08 02:24:36;;;;;;;17.13;16.40;;;;;;;;;;5093207;28;20790;-95
2021/08/08 02:27:03;;;;;;;17.03;16.23;;;;;;;;;;5093309;28;20934;-94
2021/08/08 02:29:31;;;;;;;17.13;16.23;;;;;;;;;;5093819;28;20437;-94
2021/08/08 02:31:58;;;;;;;16.80;16.07;;;;;;;;;;5097255;28;20925;-94
2021/08/08 02:34:27;;;;;;;16.67;15.97;;;;;;;;;;5097448;28;20439;-94
2021/08/08 02:36:54;;;;;;;17.63;16.73;;;;;;;;;;5097708;28;20442;-94
2021/08/08 02:39:22;;;;;;;17.80;16.90;;;;;;;;;;5097474;28;20434;-94
2021/08/08 02:41:49;;;;;;;17.10;16.40;;;;;;;;;;5079833;28;20481;-93
2021/08/08 02:44:17;;;;;;;17.73;16.77;;;;;;;;;;5096350;28;20449;-94
2021/08/08 02:46:44;;;;;;;17.23;16.43;;;;;;;;;;5097081;28;20487;-94
2021/08/08 02:49:11;;;;;;;16.80;15.97;;;;;;;;;;5097207;28;20433;-94
2021/08/08 02:51:40;;;;;;;16.60;15.90;;;;;;;;;;5097581;28;20411;-94
2021/08/08 02:54:08;;;;;;;16.83;16.03;;;;;;;;;;5097336;28;20860;-95
2021/08/08 02:56:35;;;;;;;17.20;16.50;;;;;;;;;;5096942;28;20448;-94
2021/08/08 02:59:03;;;;;;;17.03;16.23;;;;;;;;;;5097295;28;20516;-94
2021/08/08 03:01:30;;;;;;;17.37;16.47;;;;;;;;;;5096864;28;20476;-94
2021/08/08 03:03:57;;;;;;;17.77;16.77;;;;;;;;;;5097033;28;20847;-95
2021/08/08 03:06:25;;;;;;;17.63;16.73;;;;;;;;;;5097215;28;20435;-95
2021/08/08 03:08:54;;;;;;;18.10;17.10;;;;;;;;;;5096042;28;20802;-94
2021/08/08 03:11:21;;;;;;;17.60;16.60;;;;;;;;;;5097021;28;20434;-94
2021/08/08 03:13:48;;;;;;;17.13;16.33;;;;;;;;;;5096901;28;20922;-93
2021/08/08 03:16:16;;;;;;;17.90;17.00;;;;;;;;;;5096961;28;20434;-94
2021/08/08 03:18:43;;;;;;;17.20;16.30;;;;;;;;;;5097669;28;20459;-94
2021/08/08 03:21:10;;;;;;;17.80;16.80;;;;;;;;;;5096523;28;20513;-94
2021/08/08 03:23:38;;;;;;;17.50;16.60;;;;;;;;;;5096678;28;20457;-93
2021/08/08 03:26:07;;;;;;;17.60;16.60;;;;;;;;;;5096514;28;20441;-94
2021/08/08 03:28:34;;;;;;;17.00;16.10;;;;;;;;;;5095752;28;20427;-94
2021/08/08 03:31:02;;;;;;;17.43;16.63;;;;;;;;;;5096518;28;20446;-94
2021/08/08 03:33:29;;;;;;;18.73;17.50;;;;;;;;;;5097358;28;20433;-94
2021/08/08 03:35:56;;;;;;;17.90;17.10;;;;;;;;;;5096457;28;20423;-94
2021/08/08 03:38:24;;;;;;;18.07;17.17;;;;;;;;;;5096486;28;20418;-95
2021/08/08 03:40:51;;;;;;;17.50;16.70;;;;;;;;;;5096396;28;20482;-94
2021/08/08 03:43:20;;;;;;;18.30;17.40;;;;;;;;;;5094287;28;20538;-94
2021/08/08 03:45:47;;;;;;;18.77;17.80;;;;;;;;;;5096311;28;20444;-94
2021/08/08 03:48:15;;;;;;;17.83;16.93;;;;;;;;;;5096556;28;20459;-95
2021/08/08 03:50:42;;;;;;;18.57;17.37;;;;;;;;;;5096452;28;20450;-94
2021/08/08 03:53:09;;;;;;;18.73;17.83;;;;;;;;;;5096350;28;20419;-94
2021/08/08 03:55:37;;;;;;;18.67;17.57;;;;;;;;;;5096232;28;20902;-95
2021/08/08 03:58:04;;;;;;;17.93;17.13;;;;;;;;;;5095864;28;20449;-94
2021/08/08 04:00:33;;;;;;;19.30;18.23;;;;;;;;;;5095858;28;20486;-94
2021/08/08 04:03:01;;;;;;;18.30;17.50;;;;;;;;;;5096181;28;20403;-94
2021/08/08 04:05:28;;;;;;;17.43;16.63;;;;;;;;;;5096024;28;20419;-95
2021/08/08 04:07:55;;;;;;;19.13;18.13;;;;;;;;;;5095808;28;20412;-94
2021/08/08 04:10:23;;;;;;;18.90;18.00;;;;;;;;;;5095831;28;20451;-95
2021/08/08 04:12:50;;;;;;;19.30;18.27;;;;;;;;;;5096001;28;20421;-94
2021/08/08 04:15:17;;;;;;;18.70;17.50;;;;;;;;;;5095951;28;20450;-95
2021/08/08 04:17:46;;;;;;;19.20;18.30;;;;;;;;;;5095660;28;20424;-93
2021/08/08 04:20:14;;;;;;;18.10;17.30;;;;;;;;;;5095435;28;20479;-95
2021/08/08 04:22:41;;;;;;;18.20;17.20;;;;;;;;;;5095547;28;20440;-94
2021/08/08 04:25:09;;;;;;;18.23;17.23;;;;;;;;;;5094515;28;20480;-95
2021/08/08 04:27:36;;;;;;;18.50;17.50;;;;;;;;;;5095425;28;20439;-95
2021/08/08 04:30:04;;;;;;;18.00;17.00;;;;;;;;;;5094286;28;20798;-95
2021/08/08 04:32:32;;;;;;;19.47;17.97;;;;;;;;;;5095865;28;20445;-94
2021/08/08 04:35:01;;;;;;;19.03;17.87;;;;;;;;;;5095667;28;20446;-94
2021/08/08 04:37:29;;;;;;;17.73;16.73;;;;;;;;;;5095710;28;20474;-94
2021/08/08 04:39:56;;;;;;;19.27;18.20;;;;;;;;;;5095219;28;20441;-94
2021/08/08 04:42:24;;;;;;;19.90;18.70;;;;;;;;;;5095344;28;20486;-94
2021/08/08 04:44:51;;;;;;;19.27;17.87;;;;;;;;;;5095055;28;20447;-91
2021/08/08 04:47:18;;;;;;;18.50;17.60;;;;;;;;;;5095014;28;20477;-90
2021/08/08 04:49:46;;;;;;;19.23;18.00;;;;;;;;;;5095187;28;20437;-91
2021/08/08 04:52:15;;;;;;;19.00;17.53;;;;;;;;;;5095213;28;20444;-95
2021/08/08 04:54:42;;;;;;;18.77;17.57;;;;;;;;;;5094956;28;20456;-95
2021/08/08 04:57:09;;;;;;;18.43;17.50;;;;;;;;;;5095406;28;20412;-95
2021/08/08 04:59:37;;;;;;;19.60;18.20;;;;;;;;;;5095011;28;20430;-91
2021/08/08 05:02:05;;;;;;;18.00;16.77;;;;;;;;;;5094735;28;20982;-91
2021/08/08 05:04:32;;;;;;;18.73;17.53;;;;;;;;;;5095195;28;20417;-95
2021/08/08 05:06:59;;;;;;;20.03;18.10;;;;;;;;;;5094971;28;20429;-96
2021/08/08 05:09:28;;;;;;;19.00;17.70;;;;;;;;;;5095142;28;20442;-96
2021/08/08 05:11:55;;;;;;;20.03;18.93;;;;;;;;;;5095469;28;20412;-90
2021/08/08 05:14:23;;;;;;;19.10;17.87;;;;;;;;;;5095025;28;20425;-91
2021/08/08 05:16:50;;;;;;;19.50;18.30;;;;;;;;;;5094890;28;20430;-90
2021/08/08 05:19:18;;;;;;;20.07;18.60;;;;;;;;;;5094789;28;20476;-95
2021/08/08 05:21:45;;;;;;;19.23;17.93;;;;;;;;;;5093412;28;21072;-95
2021/08/08 05:24:12;;;;;;;19.13;18.13;;;;;;;;;;5094997;28;20419;-90
2021/08/08 05:26:41;;;;;;;20.13;18.83;;;;;;;;;;5094597;28;20437;-90
2021/08/08 05:29:09;;;;;;;20.90;19.53;;;;;;;;;;5094745;28;20435;-91
2021/08/08 05:31:36;;;;;;;19.90;18.50;;;;;;;;;;5095001;28;20907;-91
2021/08/08 05:34:03;;;;;;;20.70;19.53;;;;;;;;;;5094367;28;20515;-91
2021/08/08 05:36:31;;;;;;;19.60;18.60;;;;;;;;;;5094723;28;20428;-91
2021/08/08 05:38:59;;;;;;;20.67;19.47;;;;;;;;;;5094461;28;20465;-89
2021/08/08 05:41:26;;;;;;;20.80;19.33;;;;;;;;;;5094195;28;20461;-89
2021/08/08 05:43:55;;;;;;;19.40;18.33;;;;;;;;;;5094449;28;20448;-89
2021/08/08 05:46:23;;;;;;;20.00;18.80;;;;;;;;;;5094333;28;20485;-88
2021/08/08 05:48:50;;;;;;;20.27;19.10;;;;;;;;;;5094316;28;20424;-88
2021/08/08 05:51:17;;;;;;;20.30;18.87;;;;;;;;;;5094203;28;20461;-89
2021/08/08 05:53:45;;;;;;;20.07;18.87;;;;;;;;;;5094267;28;20453;-89
2021/08/08 05:56:12;;;;;;;19.27;18.37;;;;;;;;;;5094943;28;20442;-88
2021/08/08 05:58:39;;;;;;;19.70;18.50;;;;;;;;;;5094056;28;20454;-89
2021/08/08 06:01:08;;;;;;;20.77;19.30;;;;;;;;;;5092981;28;20476;-90
2021/08/08 06:03:36;;;;;;;19.37;18.27;;;;;;;;;;5093964;28;20457;-89
2021/08/08 06:06:03;;;;;;;20.20;18.77;;;;;;;;;;5094829;28;20400;-89
2021/08/08 06:08:31;;;;;;;19.80;18.50;;;;;;;;;;5097177;28;20445;-90
2021/08/08 06:10:58;;;;;;;20.43;19.03;;;;;;;;;;5098267;28;20430;-90
2021/08/08 06:13:25;;;;;;;20.03;18.30;;;;;;;;;;5098254;28;20446;-90
2021/08/08 06:15:53;;;;;;;20.97;19.57;;;;;;;;;;5097833;28;20442;-89
2021/08/08 06:18:22;;;;;;;18.53;17.63;;;;;;;;;;5097829;28;20445;-90
2021/08/08 06:20:49;;;;;;;19.60;18.23;;;;;;;;;;5098068;28;20476;-88
2021/08/08 06:23:16;;;;;;;20.07;18.70;;;;;;;;;;5096932;28;20448;-90
2021/08/08 06:25:44;;;;;;;18.70;17.30;;;;;;;;;;5097709;28;20413;-89
2021/08/08 06:28:11;;;;;;;20.40;18.70;;;;;;;;;;5097977;28;20415;-90
2021/08/08 06:30:39;;;;;;;18.87;17.70;;;;;;;;;;5097937;28;20411;-90
2021/08/08 06:33:06;;;;;;;19.90;18.60;;;;;;;;;;5097678;28;20438;-88
2021/08/08 06:35:35;;;;;;;20.27;18.50;;;;;;;;;;5097815;28;20427;-88
2021/08/08 06:38:02;;;;;;;19.83;18.37;;;;;;;;;;5097893;28;20438;-88
2021/08/08 06:40:30;;;;;;;19.60;18.37;;;;;;;;;;5097726;28;20434;-89
2021/08/08 06:42:57;;;;;;;19.40;18.40;;;;;;;;;;5097295;28;20532;-88
2021/08/08 06:45:24;;;;;;;19.47;18.30;;;;;;;;;;5097346;28;20438;-88
2021/08/08 06:47:52;;;;;;;20.73;19.43;;;;;;;;;;5096131;28;20469;-88
2021/08/08 06:50:19;;;;;;;20.00;18.77;;;;;;;;;;5097477;28;20423;-89
2021/08/08 06:52:48;;;;;;;19.70;18.47;;;;;;;;;;5097761;28;20423;-89
2021/08/08 06:55:15;;;;;;;20.23;18.70;;;;;;;;;;5096193;28;20419;-89
2021/08/08 06:57:43;;;;;;;19.40;18.23;;;;;;;;;;5096239;28;20444;-89
2021/08/08 07:00:10;;;;;;;20.10;18.90;;;;;;;;;;5096845;28;20420;-88
2021/08/08 07:02:38;;;;;;;21.73;20.40;;;;;;;;;;5096938;28;20480;-88
2021/08/08 07:05:06;;;;;;;19.53;18.63;;;;;;;;;;5097043;28;20460;-89
2021/08/08 07:07:34;;;;;;;20.63;19.13;;;;;;;;;;5097346;28;20870;-89
2021/08/08 07:10:03;;;;;;;20.40;19.00;;;;;;;;;;5097397;28;20435;-89
2021/08/08 07:12:30;;;;;;;20.17;18.77;;;;;;;;;;5096814;28;20458;-89
2021/08/08 07:14:57;;;;;;;20.57;18.73;;;;;;;;;;5097056;28;20896;-88
2021/08/08 07:17:25;;;;;;;20.33;18.83;;;;;;;;;;5096820;28;20450;-89
2021/08/08 07:19:52;;;;;;;22.23;20.43;;;;;;;;;;5096356;28;20445;-89
2021/08/08 07:22:19;;;;;;;20.90;19.63;;;;;;;;;;5096582;28;20479;-88
2021/08/08 07:24:51;;;;;;;22.13;20.83;;;;;;;;;;5096835;28;20894;-88
2021/08/08 07:27:20;;;;;;;20.17;18.67;;;;;;;;;;5096563;28;20498;-89
2021/08/08 07:29:47;;;;;;;20.03;18.63;;;;;;;;;;5096803;28;20504;-89
2021/08/08 07:32:15;;;;;;;20.83;19.63;;;;;;;;;;5096653;28;20790;-89
2021/08/08 07:34:42;;;;;;;20.57;19.27;;;;;;;;;;5096720;28;20433;-87
2021/08/08 07:37:09;;;;;;;21.00;19.73;;;;;;;;;;5095944;28;20430;-84
2021/08/08 07:39:37;;;;;;;19.80;18.70;;;;;;;;;;5097202;28;20445;-87
2021/08/08 07:42:05;;;;;;;20.00;18.70;;;;;;;;;;5098369;28;20803;-88
2021/08/08 07:44:33;;;;;;;19.47;18.37;;;;;;;;;;5096528;28;20432;-87
2021/08/08 07:47:01;;;;;;;21.10;19.40;;;;;;;;;;5096392;28;20477;-85
2021/08/08 07:49:28;;;;;;;19.93;18.63;;;;;;;;;;5095430;28;20437;-90
2021/08/08 07:51:56;;;;;;;20.87;19.47;;;;;;;;;;5096746;28;20756;-90
2021/08/08 07:54:23;;;;;;;20.30;19.10;;;;;;;;;;5095915;28;20419;-85
2021/08/08 07:56:51;;;;;;;20.53;19.33;;;;;;;;;;5095749;28;20947;-82
2021/08/08 07:59:18;;;;;;;22.73;21.27;;;;;;;;;;5095494;28;20485;-83
2021/08/08 08:01:47;;;;;;;21.07;19.63;;;;;;;;;;5095073;28;20474;-82
2021/08/08 08:04:15;;;;;;;19.73;18.33;;;;;;;;;;5095374;28;20449;-82
2021/08/08 08:06:42;;;;;;;19.50;18.17;;;;;;;;;;5095255;28;20416;-82
2021/08/08 08:09:09;;;;;;;20.57;19.10;;;;;;;;;;5095435;28;20441;-82
2021/08/08 08:11:37;;;;;;;19.77;18.67;;;;;;;;;;5095053;28;20446;-82
2021/08/08 08:14:04;;;;;;;19.90;18.50;;;;;;;;;;5095306;28;20425;-82
2021/08/08 08:16:31;;;;;;;20.63;19.20;;;;;;;;;;5095171;28;20449;-82
2021/08/08 08:19:00;;;;;;;20.63;19.20;;;;;;;;;;5094946;28;20439;-82
2021/08/08 08:21:28;;;;;;;20.37;18.90;;;;;;;;;;5095077;28;20440;-82
2021/08/08 08:23:55;;;;;;;19.83;18.73;;;;;;;;;;5095851;28;20419;-82
2021/08/08 08:26:22;;;;;;;19.00;17.70;;;;;;;;;;5095241;28;20436;-82
2021/08/08 08:28:50;;;;;;;19.73;18.23;;;;;;;;;;5094247;28;20434;-83
2021/08/08 08:31:17;;;;;;;20.57;19.37;;;;;;;;;;5094766;28;20428;-82
2021/08/08 08:33:44;;;;;;;19.90;18.40;;;;;;;;;;5094707;28;20931;-83
2021/08/08 08:36:13;;;;;;;20.30;18.77;;;;;;;;;;5094740;28;20461;-82
2021/08/08 08:38:40;;;;;;;19.90;18.60;;;;;;;;;;5094527;28;20917;-82
2021/08/08 08:41:09;;;;;;;20.60;19.10;;;;;;;;;;5095101;28;20457;-82
2021/08/08 08:43:36;;;;;;;20.90;19.40;;;;;;;;;;5094504;28;20490;-83
2021/08/08 08:46:04;;;;;;;22.17;20.53;;;;;;;;;;5094616;28;20513;-82
2021/08/08 08:48:33;;;;;;;21.13;19.70;;;;;;;;;;5094395;28;20413;-82
2021/08/08 08:51:02;;;;;;;21.60;20.00;;;;;;;;;;5094735;28;20419;-81
2021/08/08 08:53:31;;;;;;;19.63;18.50;;;;;;;;;;5094294;28;20404;-81
2021/08/08 08:56:01;;;;;;;21.40;19.47;;;;;;;;;;5094320;28;20437;-84
2021/08/08 08:58:28;;;;;;;21.27;19.73;;;;;;;;;;5094550;28;20855;-82
2021/08/08 09:00:56;;;;;;;19.87;18.67;;;;;;;;;;5094660;28;20443;-85
2021/08/08 09:03:23;;;;;;;20.33;18.80;;;;;;;;;;5094735;28;20492;-90
2021/08/08 09:05:50;;;;;;;19.47;18.47;;;;;;;;;;5095109;28;20425;-93
2021/08/08 09:08:18;;;;;;;20.40;19.00;;;;;;;;;;5098400;28;20435;-89
2021/08/08 09:10:47;;;;;;;20.27;18.83;;;;;;;;;;5094559;28;20438;-84
2021/08/08 09:13:15;;;;;;;20.60;19.10;;;;;;;;;;5094687;28;20438;-87
2021/08/08 09:15:43;;;;;;;22.37;20.60;;;;;;;;;;5093560;28;20425;-88
2021/08/08 09:18:11;;;;;;;20.30;18.90;;;;;;;;;;5094676;28;20412;-86
2021/08/08 09:20:39;;;;;;;21.80;20.40;;;;;;;;;;5094614;28;20461;-87
2021/08/08 09:23:06;;;;;;;20.37;18.77;;;;;;;;;;5094535;28;20796;-88
2021/08/08 09:25:34;;;;;;;20.70;19.40;;;;;;;;;;5094446;28;20423;-89
2021/08/08 09:28:10;;;;;;;22.17;20.70;;;;;;;;;;5094748;28;20860;-91
2021/08/08 09:30:38;;;;;;;20.67;19.07;;;;;;;;;;5094248;28;20419;-90
2021/08/08 09:33:06;;;;;;;22.13;20.43;;;;;;;;;;5094573;28;20826;-84
2021/08/08 09:35:34;;;;;;;19.67;18.53;;;;;;;;;;5094299;28;20430;-86
2021/08/08 09:38:02;;;;;;;20.00;18.80;;;;;;;;;;5094608;28;20415;-90
2021/08/08 09:40:31;;;;;;;21.13;19.80;;;;;;;;;;5094546;28;20483;-88
2021/08/08 09:42:59;;;;;;;22.37;20.60;;;;;;;;;;5098577;28;20462;-91
2021/08/08 09:45:38;;;;;;;19.97;18.87;;;;;;;;;;5098946;28;20442;-90
2021/08/08 09:48:07;;;;;;;21.17;19.87;;;;;;;;;;5097616;28;20442;-82
2021/08/08 09:50:35;;;;;;;22.17;20.77;;;;;;;;;;5097865;28;20882;-82
2021/08/08 09:53:04;;;;;;;22.20;20.70;;;;;;;;;;5098013;28;20453;-82
2021/08/08 09:55:33;;;;;;;21.63;20.13;;;;;;;;;;5096927;28;20462;-84
2021/08/08 09:58:02;;;;;;;20.80;19.60;;;;;;;;;;5097272;28;20928;-88
2021/08/08 10:00:30;;;;;;;23.40;21.47;;;;;;;;;;5097913;28;20491;-88
2021/08/08 10:03:00;;;;;;;21.47;20.17;;;;;;;;;;5097758;28;20517;-87
2021/08/08 10:05:28;;;;;;;22.50;21.10;;;;;;;;;;5098498;28;20423;-90
2021/08/08 10:07:56;;;;;;;22.03;20.43;;;;;;;;;;5098331;28;20437;-84
2021/08/08 10:10:24;;;;;;;21.67;20.07;;;;;;;;;;5096955;28;20451;-85
2021/08/08 10:13:00;;;;;;;20.97;19.77;;;;;;;;;;5096942;28;20445;-88
2021/08/08 10:15:28;;;;;;;20.97;19.77;;;;;;;;;;5097665;28;20937;-83
2021/08/08 10:17:57;;;;;;;21.50;20.00;;;;;;;;;;5098230;28;20405;-82
2021/08/08 10:20:26;;;;;;;21.40;19.87;;;;;;;;;;5097515;28;20447;-83
2021/08/08 10:22:55;;;;;;;20.03;18.60;;;;;;;;;;5097451;28;20475;-85
2021/08/08 10:25:22;;;;;;;21.90;20.10;;;;;;;;;;5097257;28;20486;-83
2021/08/08 10:27:50;;;;;;;20.93;19.57;;;;;;;;;;5097175;28;20446;-83
2021/08/08 10:30:17;;;;;;;20.83;19.53;;;;;;;;;;5098312;28;20436;-92
2021/08/08 10:32:46;;;;;;;20.77;19.27;;;;;;;;;;5098289;28;20462;-91
2021/08/08 10:35:14;;;;;;;19.40;18.20;;;;;;;;;;5097457;28;20413;-94
2021/08/08 10:37:43;;;;;;;20.27;19.00;;;;;;;;;;5099048;28;20469;-94
2021/08/08 10:40:11;;;;;;;20.57;19.23;;;;;;;;;;5097574;28;20408;-84
2021/08/08 10:42:42;;;;;;;21.10;19.80;;;;;;;;;;5097050;28;20487;-84
2021/08/08 10:45:21;;;;;;;20.93;19.63;;;;;;;;;;5096358;28;20447;-85
2021/08/08 10:47:54;;;;;;;21.37;19.90;;;;;;;;;;5097188;28;20475;-85
2021/08/08 10:50:22;;;;;;;21.30;19.73;;;;;;;;;;5097034;28;20428;-85
2021/08/08 10:52:51;;;;;;;22.13;20.60;;;;;;;;;;5097338;28;20891;-85
2021/08/08 10:55:27;;;;;;;21.83;20.33;;;;;;;;;;5097344;28;20455;-88
2021/08/08 10:57:54;;;;;;;20.23;19.00;;;;;;;;;;5096734;28;20504;-95
2021/08/08 11:00:22;;;;;;;21.73;19.93;;;;;;;;;;5103341;28;21007;-95
2021/08/08 11:02:49;;;;;;;21.63;19.90;;;;;;;;;;5099068;28;20482;-94
2021/08/08 11:05:18;;;;;;;21.73;20.13;;;;;;;;;;5100229;28;20465;-96
2021/08/08 11:07:46;;;;;;;21.40;20.00;;;;;;;;;;5098829;28;20914;-93
2021/08/08 11:10:26;;;;;;;21.87;20.57;;;;;;;;;;5109324;28;20429;-93
2021/08/08 11:12:53;;;;;;;21.47;19.93;;;;;;;;;;5108139;28;20458;-96
2021/08/08 11:15:21;;;;;;;23.17;21.53;;;;;;;;;;5117074;28;20409;-92
2021/08/08 11:17:49;;;;;;;22.13;20.73;;;;;;;;;;5102538;28;20418;-88
2021/08/08 11:20:16;;;;;;;20.13;19.03;;;;;;;;;;5117484;28;20467;-88
2021/08/08 11:22:44;;;;;;;21.57;20.10;;;;;;;;;;5116447;28;20561;-88
2021/08/08 11:25:14;;;;;;;21.17;19.77;;;;;;;;;;5115707;28;20422;-87
2021/08/08 11:27:44;;;;;;;23.00;21.17;;;;;;;;;;5116628;28;20972;-87
2021/08/08 11:30:13;;;;;;;21.13;19.93;;;;;;;;;;5116372;28;20437;-88
2021/08/08 11:32:41;;;;;;;21.93;20.43;;;;;;;;;;5117302;28;20457;-87
2021/08/08 11:35:10;;;;;;;22.23;20.60;;;;;;;;;;5117337;28;20466;-88
2021/08/08 11:37:38;;;;;;;21.90;20.20;;;;;;;;;;5116859;28;20420;-88
2021/08/08 11:40:16;;;;;;;23.03;20.90;;;;;;;;;;5117114;28;20493;-88
2021/08/08 11:42:45;;;;;;;21.13;19.83;;;;;;;;;;5116962;28;20438;-87
2021/08/08 11:45:13;;;;;;;20.23;19.00;;;;;;;;;;5116867;28;20512;-87
2021/08/08 11:47:41;;;;;;;21.40;19.90;;;;;;;;;;5116708;28;20505;-87
2021/08/08 11:50:08;;;;;;;22.77;20.90;;;;;;;;;;5116794;28;20429;-87
2021/08/08 11:52:37;;;;;;;22.13;20.53;;;;;;;;;;5116567;28;20433;-87
2021/08/08 11:55:06;;;;;;;21.93;20.37;;;;;;;;;;5116773;28;20515;-87
2021/08/08 11:57:35;;;;;;;21.80;20.30;;;;;;;;;;5116174;28;20434;-87
2021/08/08 12:00:05;;;;;;;21.20;19.80;;;;;;;;;;5116283;28;20434;-87
2021/08/08 12:02:33;;;;;;;21.40;20.13;;;;;;;;;;5116463;27;20435;-87
2021/08/08 12:05:01;;;;;;;22.80;20.23;;;;;;;;;;5115410;28;20511;-87
2021/08/08 12:07:29;;;;;;;22.40;20.70;;;;;;;;;;5116909;27;20458;-87
2021/08/08 12:09:57;;;;;;;22.10;20.60;;;;;;;;;;5116265;28;20453;-88
2021/08/08 12:12:34;;;;;;;22.90;21.30;;;;;;;;;;5116142;28;20915;-88
2021/08/08 12:15:01;;;;;;;22.93;21.20;;;;;;;;;;5116157;28;20466;-87
2021/08/08 12:17:30;;;;;;;21.77;20.47;;;;;;;;;;5116285;28;20526;-88
2021/08/08 12:20:00;;;;;;;22.40;20.77;;;;;;;;;;5115886;28;20481;-88
2021/08/08 12:22:28;;;;;;;22.50;21.00;;;;;;;;;;5115845;28;20492;-88
2021/08/08 12:25:02;;;;;;;21.30;20.00;;;;;;;;;;5115603;28;20465;-88
2021/08/08 12:27:31;;;;;;;23.03;21.40;;;;;;;;;;5114987;28;20933;-88
2021/08/08 12:29:59;;;;;;;23.30;21.87;;;;;;;;;;5115912;28;20443;-88
2021/08/08 12:32:26;;;;;;;21.97;20.33;;;;;;;;;;5115693;28;20418;-86
2021/08/08 12:35:06;;;;;;;22.80;20.83;;;;;;;;;;5112171;28;20431;-87
2021/08/08 12:37:33;;;;;;;22.10;20.70;;;;;;;;;;5102705;28;20425;-87
2021/08/08 12:40:08;;;;;;;23.37;21.70;;;;;;;;;;5103887;28;20783;-88
2021/08/08 12:42:36;;;;;;;21.93;20.60;;;;;;;;;;5095247;28;20798;-87
2021/08/08 12:45:07;;;;;;;21.97;20.63;;;;;;;;;;5122553;27;20465;-96
2021/08/08 12:47:35;;;;;;;21.37;19.87;;;;;;;;;;5114322;27;20468;-96
2021/08/08 12:50:15;;;;;;;23.60;21.87;;;;;;;;;;5105824;28;20471;-96
2021/08/08 12:52:45;;;;;;;22.73;21.10;;;;;;;;;;5107624;28;20427;-96
2021/08/08 12:55:13;;;;;;;22.43;21.17;;;;;;;;;;5105099;28;20445;-96
2021/08/08 12:57:41;;;;;;;23.73;21.33;;;;;;;;;;5105821;28;20790;-88
2021/08/08 13:00:10;;;;;;;21.50;20.20;;;;;;;;;;5102867;28;20418;-86
2021/08/08 13:02:37;;;;;;;21.93;20.63;;;;;;;;;;5110987;28;20496;-86
2021/08/08 13:05:05;;;;;;;23.83;22.17;;;;;;;;;;5112585;28;20472;-86
2021/08/08 13:07:34;;;;;;;22.27;20.87;;;;;;;;;;5099949;28;20431;-86
2021/08/08 13:10:01;;;;;;;22.47;21.20;;;;;;;;;;5094794;28;20764;-87
2021/08/08 13:12:29;;;;;;;22.00;20.60;;;;;;;;;;5095384;28;20455;-87
2021/08/08 13:14:56;;;;;;;23.17;21.70;;;;;;;;;;5094784;28;20439;-87
2021/08/08 13:17:24;;;;;;;22.90;21.37;;;;;;;;;;5094756;28;20419;-87
2021/08/08 13:19:51;;;;;;;22.37;20.97;;;;;;;;;;5094419;28;20475;-87
2021/08/08 13:22:19;;;;;;;21.40;20.20;;;;;;;;;;5093652;28;20476;-88
2021/08/08 13:24:48;;;;;;;22.00;20.63;;;;;;;;;;5094688;28;20482;-88
2021/08/08 13:27:15;;;;;;;21.93;20.30;;;;;;;;;;5094492;28;20435;-88
2021/08/08 13:29:42;;;;;;;20.90;19.63;;;;;;;;;;5094624;28;20437;-88
2021/08/08 13:32:10;;;;;;;22.00;20.60;;;;;;;;;;5094812;28;20451;-87
2021/08/08 13:34:37;;;;;;;21.60;20.10;;;;;;;;;;5095098;28;20456;-87
2021/08/08 13:37:06;;;;;;;21.90;20.60;;;;;;;;;;5094578;28;20461;-87
2021/08/08 13:39:33;;;;;;;21.97;20.43;;;;;;;;;;5093409;28;20479;-87
2021/08/08 13:42:03;;;;;;;22.30;20.70;;;;;;;;;;5094347;28;20422;-87
2021/08/08 13:44:30;;;;;;;21.93;20.70;;;;;;;;;;5094254;28;20487;-87
2021/08/08 13:46:58;;;;;;;22.60;21.00;;;;;;;;;;5094233;28;20454;-88
2021/08/08 13:49:27;;;;;;;21.23;20.03;;;;;;;;;;5093285;28;20493;-88
2021/08/08 13:51:55;;;;;;;22.13;20.73;;;;;;;;;;5093431;28;20452;-88
2021/08/08 13:54:24;;;;;;;22.23;20.70;;;;;;;;;;5094150;28;20456;-88
2021/08/08 13:56:51;;;;;;;22.50;21.07;;;;;;;;;;5094143;28;20491;-88
2021/08/08 13:59:20;;;;;;;22.57;21.00;;;;;;;;;;5094200;28;20424;-88
2021/08/08 14:01:47;;;;;;;22.27;20.80;;;;;;;;;;5093433;28;20487;-87
2021/08/08 14:04:16;;;;;;;21.67;20.37;;;;;;;;;;5094436;28;20973;-88
2021/08/08 14:06:43;;;;;;;22.13;20.53;;;;;;;;;;5094440;28;20411;-87
2021/08/08 14:09:11;;;;;;;21.70;20.10;;;;;;;;;;5094407;28;20424;-88
2021/08/08 14:11:38;;;;;;;21.67;20.33;;;;;;;;;;5094296;28;20449;-87
2021/08/08 14:14:06;;;;;;;21.67;20.27;;;;;;;;;;5092966;28;20968;-87
2021/08/08 14:16:34;;;;;;;21.70;20.40;;;;;;;;;;5094214;28;20435;-87
2021/08/08 14:19:02;;;;;;;22.70;21.30;;;;;;;;;;5094312;28;20409;-88
2021/08/08 14:21:29;;;;;;;22.43;21.03;;;;;;;;;;5093342;28;20463;-87